Helt, Indiana
Current Conditions -  °F | °C
As of 4:35 PM on Tuesday 25 Nov 2014 (Local Time) from KPRG Reporting Station
Overcast Overcast  
Wind Chill: 29°   Ceiling: 1700
Heat Index: 29°   Visibility: 10mi
Dew Point: 24°   Wind: 0mph
Humidity: 82%   Direction: NA
Pressure: 30.18"   Gusts: NA
Location:  39.7561°N, 87.4866°W
Report Text: KPRG 252135Z AUTO 00000KT 10SM OVC017 M02/M04 A3018 RMK AO2 T10161043
Loading
Personal Weather Stations






























Interactive Weather Map New forecast layout! Learn more

10-Day Weather Forecast

Advertisements
Track Severe Weather on mobile